Time;durP1;ratioP1;P1;durP2;ratioP2;P2;SDS_P1;SDS_P2;PMS_P1;PMS_P2;Temp;Humidity;BMP_temperature;BMP_pressure;BME280_temperature;BME280_humidity;BME280_pressure;Samples;Min_cycle;Max_cycle;Signal;HPM_P1;HPM_P2
2021/07/16 00:01:52;;;;;;;0.10;0.10;;;;;;;20.54;78.40;99279.00;4966667;28;20108;-78
2021/07/16 00:04:18;;;;;;;0.38;0.20;;;;;;;20.48;78.67;99280.72;4958370;28;20050;-75
2021/07/16 00:06:44;;;;;;;0.20;0.20;;;;;;;20.53;78.64;99276.50;4972434;28;20092;-77
2021/07/16 00:09:10;;;;;;;0.10;0.10;;;;;;;20.60;77.80;99277.28;4989237;28;20058;-75
2021/07/16 00:11:36;;;;;;;0.10;0.10;;;;;;;20.63;77.68;99276.84;4986910;28;20097;-76
2021/07/16 00:14:03;;;;;;;0.10;0.10;;;;;;;20.59;77.95;99264.63;4964602;28;20045;-77
2021/07/16 00:16:29;;;;;;;0.10;0.10;;;;;;;20.53;78.11;99268.25;4967550;28;20495;-76
2021/07/16 00:18:55;;;;;;;0.10;0.10;;;;;;;20.45;78.82;99275.69;4950151;28;20116;-76
2021/07/16 00:21:21;;;;;;;0.10;0.10;;;;;;;20.45;78.57;99274.84;4937174;28;20516;-76
2021/07/16 00:23:47;;;;;;;0.10;0.10;;;;;;;20.47;77.99;99278.19;4962402;28;20069;-76
2021/07/16 00:26:14;;;;;;;0.10;0.10;;;;;;;20.47;78.31;99276.28;4981344;28;20129;-77
2021/07/16 00:28:40;;;;;;;0.10;0.10;;;;;;;20.47;78.43;99272.69;4982261;28;20184;-75
2021/07/16 00:31:06;;;;;;;0.10;0.10;;;;;;;20.40;78.87;99272.78;4980812;28;20115;-77
2021/07/16 00:33:32;;;;;;;0.10;0.10;;;;;;;20.22;79.05;99264.50;4988242;28;20049;-78
2021/07/16 00:35:58;;;;;;;0.10;0.10;;;;;;;20.24;79.24;99274.16;4982308;28;20078;-76
2021/07/16 00:38:26;;;;;;;0.10;0.10;;;;;;;20.21;79.55;99268.28;4945316;28;20097;-76
2021/07/16 00:40:52;;;;;;;0.20;0.20;;;;;;;20.24;79.23;99270.59;4976176;28;20483;-77
2021/07/16 00:43:20;;;;;;;0.30;0.10;;;;;;;20.26;79.77;99264.84;4949292;28;20293;-75
2021/07/16 00:45:46;;;;;;;0.10;0.10;;;;;;;20.29;79.63;99268.00;4961281;28;20057;-77
2021/07/16 00:48:12;;;;;;;0.10;0.10;;;;;;;20.29;79.19;99264.41;4928612;28;20038;-75
2021/07/16 00:50:40;;;;;;;0.10;0.10;;;;;;;20.28;79.18;99268.22;4984961;28;20049;-76
2021/07/16 00:53:09;;;;;;;0.10;0.10;;;;;;;20.28;79.16;99258.09;4946628;28;20046;-78
2021/07/16 00:55:37;;;;;;;0.10;0.10;;;;;;;20.29;79.43;99265.25;4965303;28;20425;-78
2021/07/16 00:58:03;;;;;;;0.10;0.10;;;;;;;20.35;78.72;99258.88;4955809;28;20476;-76
2021/07/16 01:00:29;;;;;;;0.10;0.10;;;;;;;20.33;78.14;99261.03;4966206;28;20106;-75
2021/07/16 01:02:55;;;;;;;0.10;0.10;;;;;;;20.31;78.77;99254.06;4975500;28;20046;-77
2021/07/16 01:05:22;;;;;;;0.10;0.10;;;;;;;20.26;78.56;99253.88;4983015;28;20030;-76
2021/07/16 01:07:49;;;;;;;0.10;0.10;;;;;;;20.24;78.42;99251.38;4966401;28;20090;-74
2021/07/16 01:10:16;;;;;;;0.10;0.10;;;;;;;20.20;78.49;99247.38;4987301;28;20034;-75
2021/07/16 01:12:43;;;;;;;0.10;0.10;;;;;;;20.17;78.95;99239.59;4951732;28;20049;-76
2021/07/16 01:15:16;;;;;;;0.10;0.10;;;;;;;20.21;78.64;99252.66;4940792;28;20035;-75
2021/07/16 01:17:42;;;;;;;0.47;0.10;;;;;;;20.20;79.27;99255.63;4976411;28;20050;-76
2021/07/16 01:20:22;;;;;;;0.10;0.10;;;;;;;20.25;78.80;99253.03;4984589;28;20380;-76
2021/07/16 01:22:48;;;;;;;0.10;0.10;;;;;;;20.28;79.02;99249.84;4966434;28;20093;-75
2021/07/16 01:25:17;;;;;;;0.10;0.10;;;;;;;20.27;78.97;99248.19;4966275;28;20042;-76
2021/07/16 01:27:45;;;;;;;0.10;0.10;;;;;;;20.21;78.95;99252.66;4975803;28;20098;-76
2021/07/16 01:30:12;;;;;;;0.10;0.10;;;;;;;20.26;78.93;99249.25;4966625;28;20121;-76
2021/07/16 01:32:39;;;;;;;0.10;0.10;;;;;;;20.23;78.63;99255.19;4953168;28;20069;-76
2021/07/16 01:35:06;;;;;;;0.10;0.10;;;;;;;20.24;78.11;99246.72;4980978;28;20133;-75
2021/07/16 01:37:32;;;;;;;0.10;0.10;;;;;;;20.26;78.47;99243.75;4966463;28;20509;-74
2021/07/16 01:40:10;;;;;;;0.10;0.10;;;;;;;20.21;78.18;99249.06;4974766;28;20080;-75
2021/07/16 01:42:40;;;;;;;0.10;0.10;;;;;;;20.17;78.36;99251.41;4963506;28;20077;-77
2021/07/16 01:45:12;;;;;;;0.50;0.30;;;;;;;20.15;78.77;99255.47;4976271;28;20390;-77
2021/07/16 01:47:51;;;;;;;0.10;0.10;;;;;;;20.12;79.17;99264.13;4974231;28;20043;-75
2021/07/16 01:50:18;;;;;;;0.10;0.10;;;;;;;20.11;79.04;99262.44;4969122;28;20034;-76
2021/07/16 01:52:46;;;;;;;0.10;0.10;;;;;;;20.11;79.52;99259.69;4952724;28;20519;-76
2021/07/16 01:55:13;;;;;;;0.10;0.10;;;;;;;20.22;79.05;99253.50;4959955;28;20073;-76
2021/07/16 01:57:39;;;;;;;1.10;0.20;;;;;;;20.24;78.34;99256.84;4956820;28;20045;-75
2021/07/16 02:00:09;;;;;;;0.10;0.10;;;;;;;20.20;78.32;99256.47;4981709;28;20038;-76
2021/07/16 02:02:48;;;;;;;0.20;0.20;;;;;;;20.21;78.45;99255.38;4971336;28;20076;-76
2021/07/16 02:05:15;;;;;;;0.50;0.20;;;;;;;20.18;78.70;99258.59;4957828;28;20121;-74
2021/07/16 02:07:41;;;;;;;1.00;0.40;;;;;;;20.24;78.39;99252.19;4954886;28;20046;-78
2021/07/16 02:10:08;;;;;;;0.20;0.20;;;;;;;20.25;78.61;99258.53;4986498;28;20040;-76
2021/07/16 02:12:34;;;;;;;0.20;0.10;;;;;;;20.26;79.07;99265.72;4960996;28;20093;-76
2021/07/16 02:14:59;;;;;;;0.10;0.10;;;;;;;20.29;79.08;99265.25;4968613;28;20050;-76
2021/07/16 02:17:25;;;;;;;0.25;0.10;;;;;;;20.28;79.25;99263.56;4937482;28;20431;-75
2021/07/16 02:19:51;;;;;;;0.40;0.20;;;;;;;20.32;78.93;99253.81;4958583;28;20039;-77
2021/07/16 02:22:17;;;;;;;0.20;0.20;;;;;;;20.36;78.64;99251.47;4967811;28;20490;-76
2021/07/16 02:24:43;;;;;;;0.10;0.10;;;;;;;20.38;79.02;99257.59;4956313;28;20054;-76
2021/07/16 02:27:09;;;;;;;0.10;0.10;;;;;;;20.39;79.11;99254.59;4987130;28;20054;-75
2021/07/16 02:29:35;;;;;;;0.10;0.10;;;;;;;20.44;79.40;99254.78;4985139;28;20034;-76
2021/07/16 02:32:02;;;;;;;0.10;0.10;;;;;;;20.54;78.55;99239.72;4963243;28;20091;-75
2021/07/16 02:34:30;;;;;;;0.10;0.10;;;;;;;20.63;78.31;99238.38;4986021;28;20072;-76
2021/07/16 02:36:57;;;;;;;0.17;0.17;;;;;;;20.80;77.24;99238.59;4980000;28;20047;-76
2021/07/16 02:39:23;;;;;;;0.10;0.10;;;;;;;20.90;76.75;99242.50;4971424;28;20038;-77
2021/07/16 02:41:49;;;;;;;0.20;0.20;;;;;;;21.03;76.38;99243.44;4975025;28;20388;-79
2021/07/16 02:44:15;;;;;;;0.25;0.20;;;;;;;21.10;75.99;99246.97;4938397;28;20053;-77
2021/07/16 02:46:41;;;;;;;0.28;0.20;;;;;;;21.19;76.07;99259.31;4945596;28;20046;-76
2021/07/16 02:49:06;;;;;;;0.10;0.10;;;;;;;21.23;75.82;99245.94;4971330;28;20103;-75
2021/07/16 02:51:32;;;;;;;0.10;0.10;;;;;;;21.28;76.15;99252.44;4931243;29;20035;-76
2021/07/16 02:53:58;;;;;;;0.20;0.20;;;;;;;21.37;76.32;99255.75;4967746;28;20078;-76
2021/07/16 02:56:24;;;;;;;0.20;0.20;;;;;;;21.50;75.39;99250.06;4941175;28;20468;-74
2021/07/16 02:58:50;;;;;;;0.20;0.20;;;;;;;21.59;74.79;99243.16;4951306;28;20051;-76
2021/07/16 03:01:15;;;;;;;0.10;0.10;;;;;;;21.77;74.68;99239.53;4952707;28;20038;-76
2021/07/16 03:03:41;;;;;;;0.20;0.20;;;;;;;21.88;74.32;99235.97;4962026;28;20051;-75
2021/07/16 03:06:07;;;;;;;0.20;0.20;;;;;;;22.03;74.08;99235.53;4971030;28;20448;-75
2021/07/16 03:08:33;;;;;;;0.20;0.20;;;;;;;22.19;73.31;99238.69;4962099;28;20484;-76
2021/07/16 03:10:59;;;;;;;0.10;0.10;;;;;;;22.29;72.93;99248.06;4940372;29;20042;-77
2021/07/16 03:13:24;;;;;;;0.20;0.20;;;;;;;22.44;72.48;99250.34;4969177;28;20054;-77
2021/07/16 03:15:50;;;;;;;0.40;0.20;;;;;;;22.61;72.35;99256.00;4970364;28;20062;-78
2021/07/16 03:18:17;;;;;;;0.20;0.20;;;;;;;22.74;71.22;99254.91;4971746;28;20464;-75
2021/07/16 03:20:45;;;;;;;0.22;0.20;;;;;;;22.88;70.95;99256.31;4959096;28;20141;-76
2021/07/16 03:23:12;;;;;;;0.20;0.20;;;;;;;23.09;70.53;99252.16;4961747;28;20489;-75
2021/07/16 03:25:38;;;;;;;0.20;0.20;;;;;;;23.25;69.49;99262.41;4957217;28;20086;-75
2021/07/16 03:28:05;;;;;;;0.20;0.20;;;;;;;23.51;68.21;99257.41;4958640;28;20174;-77
2021/07/16 03:30:32;;;;;;;0.20;0.20;;;;;;;23.74;67.56;99265.66;4966780;28;20477;-78
2021/07/16 03:32:58;;;;;;;0.20;0.20;;;;;;;23.87;66.75;99272.78;4961617;28;20044;-76
2021/07/16 03:35:24;;;;;;;0.20;0.20;;;;;;;24.14;66.39;99274.94;4957283;28;20074;-77
2021/07/16 03:37:52;;;;;;;0.20;0.20;;;;;;;24.28;65.55;99270.78;4942884;28;20039;-77
2021/07/16 03:40:22;;;;;;;0.20;0.20;;;;;;;24.47;65.44;99274.16;4944889;28;20034;-77
2021/07/16 03:42:49;;;;;;;0.20;0.20;;;;;;;24.49;65.98;99271.97;4980440;28;20515;-79
2021/07/16 03:45:15;;;;;;;0.20;0.20;;;;;;;24.68;65.01;99267.88;4989459;28;20061;-77
2021/07/16 03:47:45;;;;;;;0.20;0.20;;;;;;;24.90;63.70;99272.59;4986695;28;20034;-76
2021/07/16 03:50:15;;;;;;;0.20;0.20;;;;;;;24.97;63.49;99273.25;4960905;28;20042;-78
2021/07/16 03:52:42;;;;;;;0.20;0.20;;;;;;;25.16;62.63;99263.63;4976764;28;20037;-77
2021/07/16 03:55:09;;;;;;;0.20;0.20;;;;;;;25.50;60.95;99271.78;4984212;28;20607;-76
2021/07/16 03:57:36;;;;;;;0.20;0.20;;;;;;;25.61;61.18;99272.75;4956939;28;20049;-77
2021/07/16 04:00:06;;;;;;;0.20;0.20;;;;;;;25.76;60.32;99272.09;4990949;28;20090;-78
2021/07/16 04:02:34;;;;;;;0.20;0.20;;;;;;;25.84;59.19;99268.88;4989971;28;20046;-79
2021/07/16 04:05:00;;;;;;;0.20;0.20;;;;;;;25.90;59.40;99276.16;4983023;28;20042;-79
2021/07/16 04:07:28;;;;;;;0.20;0.20;;;;;;;26.13;58.79;99270.28;4963160;28;20047;-80
2021/07/16 04:09:55;;;;;;;0.20;0.20;;;;;;;26.31;57.78;99276.53;4964424;28;20046;-79
2021/07/16 04:12:21;;;;;;;0.20;0.20;;;;;;;26.50;57.14;99275.06;4943979;28;20046;-78
2021/07/16 04:14:54;;;;;;;0.20;0.20;;;;;;;26.72;57.39;99276.91;4987718;28;20041;-79
2021/07/16 04:17:25;;;;;;;0.20;0.20;;;;;;;26.87;56.63;99277.00;4986547;28;20042;-77
2021/07/16 04:19:52;;;;;;;0.30;0.30;;;;;;;27.04;56.42;99285.16;4985862;28;20106;-77
2021/07/16 04:22:19;;;;;;;0.20;0.20;;;;;;;27.30;55.42;99275.06;4977814;28;20586;-78
2021/07/16 04:24:45;;;;;;;0.20;0.20;;;;;;;27.49;54.52;99286.53;4982721;28;20117;-78
2021/07/16 04:27:12;;;;;;;0.20;0.20;;;;;;;27.65;55.13;99278.00;4963501;28;20174;-78
2021/07/16 04:29:39;;;;;;;0.30;0.30;;;;;;;27.88;54.44;99276.69;4960898;28;20046;-79
2021/07/16 04:32:06;;;;;;;0.30;0.30;;;;;;;27.92;53.85;99274.19;4977026;28;20057;-81
2021/07/16 04:34:33;;;;;;;0.30;0.30;;;;;;;28.03;54.42;99278.66;4971190;28;20030;-77
2021/07/16 04:37:00;;;;;;;0.30;0.30;;;;;;;28.34;53.19;99281.50;4990550;28;20174;-78
2021/07/16 04:39:27;;;;;;;0.30;0.30;;;;;;;28.43;52.96;99279.84;4940897;28;20038;-79
2021/07/16 04:41:53;;;;;;;0.30;0.30;;;;;;;28.66;52.17;99280.41;4955665;28;20038;-77
2021/07/16 04:44:19;;;;;;;0.30;0.30;;;;;;;28.83;51.79;99278.16;4967541;28;20043;-77
2021/07/16 04:46:46;;;;;;;0.30;0.30;;;;;;;29.06;51.25;99277.59;4934119;28;20126;-81
2021/07/16 04:49:12;;;;;;;0.30;0.30;;;;;;;29.28;50.78;99287.56;4933553;28;20107;-78
2021/07/16 04:51:38;;;;;;;0.30;0.30;;;;;;;29.47;50.10;99277.47;4945753;28;20039;-79
2021/07/16 04:54:06;;;;;;;0.30;0.30;;;;;;;29.42;50.27;99280.28;4960206;28;20556;-79
2021/07/16 04:56:33;;;;;;;0.30;0.30;;;;;;;29.46;50.13;99274.97;4946394;28;20118;-79
2021/07/16 04:58:59;;;;;;;0.50;0.40;;;;;;;29.78;49.31;99288.50;4951133;28;20047;-80
2021/07/16 05:01:26;;;;;;;0.30;0.30;;;;;;;30.02;48.76;99289.50;4955634;28;21214;-80
2021/07/16 05:03:54;;;;;;;0.30;0.30;;;;;;;30.19;48.32;99288.28;4942575;28;20047;-80
2021/07/16 05:06:30;;;;;;;0.30;0.30;;;;;;;30.43;47.47;99289.22;4938031;28;20110;-81
2021/07/16 05:08:56;;;;;;;0.30;0.30;;;;;;;30.49;47.13;99279.66;4961980;28;20599;-81
2021/07/16 05:11:22;;;;;;;0.30;0.30;;;;;;;31.05;46.14;99299.88;4969569;28;20093;-77
2021/07/16 05:13:49;;;;;;;0.30;0.30;;;;;;;30.83;46.78;99292.81;4962980;28;20070;-81
2021/07/16 05:16:16;;;;;;;0.30;0.30;;;;;;;30.77;46.05;99298.75;4958118;28;20083;-81
2021/07/16 05:18:42;;;;;;;0.35;0.35;;;;;;;31.18;45.42;99299.16;4943080;28;20066;-79
2021/07/16 05:21:10;;;;;;;0.40;0.40;;;;;;;31.48;45.40;99305.56;4934987;28;20031;-83
2021/07/16 05:23:36;;;;;;;0.40;0.40;;;;;;;31.67;44.13;99289.69;4934384;28;20143;-79
2021/07/16 05:26:02;;;;;;;0.40;0.40;;;;;;;31.80;44.12;99294.50;4942466;28;20467;-82
2021/07/16 05:28:29;;;;;;;0.40;0.40;;;;;;;31.97;43.20;99299.63;4946627;28;20045;-80
2021/07/16 05:30:55;;;;;;;0.40;0.40;;;;;;;32.30;42.69;99303.34;4920765;28;20475;-79
2021/07/16 05:33:21;;;;;;;0.32;0.32;;;;;;;32.65;41.91;99303.91;4945806;28;20039;-79
2021/07/16 05:36:01;;;;;;;0.40;0.40;;;;;;;32.87;41.63;99306.91;4946497;28;20058;-78
2021/07/16 05:38:27;;;;;;;0.40;0.40;;;;;;;32.98;41.51;99301.13;4947730;28;20046;-80
2021/07/16 05:40:54;;;;;;;0.40;0.40;;;;;;;33.34;40.42;99310.53;4963597;28;20050;-81
2021/07/16 05:43:21;;;;;;;0.52;0.40;;;;;;;33.54;39.12;99308.50;4931592;28;20043;-79
2021/07/16 05:45:47;;;;;;;0.40;0.40;;;;;;;33.58;39.47;99303.94;4949200;28;20042;-81
2021/07/16 05:48:13;;;;;;;0.40;0.40;;;;;;;33.29;39.35;99296.63;4950267;28;20077;-82
2021/07/16 05:50:41;;;;;;;0.50;0.50;;;;;;;33.77;39.26;99301.81;4921155;28;20425;-82
2021/07/16 05:53:08;;;;;;;0.50;0.50;;;;;;;33.93;38.71;99304.28;4940104;28;20469;-81
2021/07/16 05:55:35;;;;;;;0.40;0.40;;;;;;;34.47;37.80;99308.13;4936674;28;20039;-83
2021/07/16 05:58:01;;;;;;;0.40;0.40;;;;;;;34.46;37.38;99303.66;4937351;28;20460;-82
2021/07/16 06:00:28;;;;;;;0.50;0.50;;;;;;;34.89;36.69;99303.16;4965235;28;20057;-80
2021/07/16 06:02:55;;;;;;;0.50;0.50;;;;;;;35.12;36.39;99304.81;4944349;28;20058;-80
2021/07/16 06:05:21;;;;;;;0.50;0.50;;;;;;;35.24;36.79;99299.41;4966258;28;20046;-82
2021/07/16 06:07:47;;;;;;;1.88;1.73;;;;;;;35.31;36.60;99292.50;4933347;28;20420;-79
2021/07/16 06:10:14;;;;;;;0.40;0.40;;;;;;;35.46;35.65;99306.09;4963922;28;20046;-80
2021/07/16 06:12:40;;;;;;;1.38;0.93;;;;;;;35.78;34.96;99301.28;4915734;28;20093;-81
2021/07/16 06:15:08;;;;;;;0.50;0.50;;;;;;;36.11;34.14;99293.25;4964843;28;20108;-80
2021/07/16 06:17:34;;;;;;;0.40;0.40;;;;;;;35.61;35.29;99302.88;4947874;28;20448;-80
2021/07/16 06:20:00;;;;;;;0.50;0.50;;;;;;;35.26;35.69;99299.91;4968955;28;20042;-82
2021/07/16 06:22:27;;;;;;;0.60;0.60;;;;;;;35.65;35.12;99295.47;4941409;28;20295;-82
2021/07/16 06:24:53;;;;;;;0.60;0.60;;;;;;;35.97;34.59;99297.00;4960017;28;20047;-82
2021/07/16 06:27:19;;;;;;;0.50;0.50;;;;;;;36.12;34.58;99295.72;4967656;28;20105;-82
2021/07/16 06:29:46;;;;;;;0.60;0.60;;;;;;;36.43;33.91;99294.75;4939252;28;20050;-82
2021/07/16 06:32:12;;;;;;;0.50;0.50;;;;;;;37.08;32.79;99305.00;4956991;28;20096;-83
2021/07/16 06:34:38;;;;;;;1.00;0.73;;;;;;;37.50;31.59;99299.53;4970467;28;20078;-83
2021/07/16 06:37:04;;;;;;;0.60;0.60;;;;;;;37.26;31.52;99299.25;4975399;28;20126;-82
2021/07/16 06:39:30;;;;;;;0.60;0.60;;;;;;;37.56;30.97;99301.00;4976050;28;20130;-83
2021/07/16 06:41:57;;;;;;;0.50;0.50;;;;;;;37.83;30.71;99290.38;4984109;28;20049;-82
2021/07/16 06:44:23;;;;;;;0.50;0.50;;;;;;;38.01;31.00;99303.25;4991742;28;20038;-81
2021/07/16 06:46:49;;;;;;;0.60;0.60;;;;;;;38.07;30.79;99301.88;4986362;28;20133;-83
2021/07/16 06:49:16;;;;;;;0.50;0.50;;;;;;;37.94;30.91;99296.50;4990401;28;20073;-81
2021/07/16 06:51:42;;;;;;;0.60;0.60;;;;;;;37.55;31.43;99288.03;4991215;28;20042;-82
2021/07/16 06:54:08;;;;;;;0.60;0.60;;;;;;;38.00;31.09;99284.66;4974835;28;20046;-82
2021/07/16 06:56:37;;;;;;;0.60;0.60;;;;;;;38.49;30.04;99287.78;4985998;28;20397;-81
2021/07/16 06:59:06;;;;;;;0.60;0.60;;;;;;;38.71;29.73;99291.38;4978812;28;20038;-81
2021/07/16 07:01:32;;;;;;;0.60;0.60;;;;;;;38.79;29.03;99287.63;4971177;28;20607;-83
2021/07/16 07:03:59;;;;;;;0.55;0.55;;;;;;;39.10;28.87;99284.34;4995984;28;20026;-83
2021/07/16 07:06:26;;;;;;;0.60;0.60;;;;;;;39.15;29.48;99277.63;4990455;28;20038;-81
2021/07/16 07:08:53;;;;;;;0.60;0.60;;;;;;;39.31;28.42;99281.47;4972962;28;20089;-83
2021/07/16 07:11:19;;;;;;;0.63;0.63;;;;;;;39.51;28.12;99283.34;4992713;28;20054;-83
2021/07/16 07:13:46;;;;;;;0.70;0.70;;;;;;;39.80;28.26;99286.31;4979069;28;20096;-82
2021/07/16 07:16:15;;;;;;;0.60;0.60;;;;;;;39.93;28.21;99280.28;4992770;28;20047;-83
2021/07/16 07:18:44;;;;;;;0.10;0.10;;;;;;;39.74;27.81;99282.88;4972763;28;20039;-82
2021/07/16 07:21:12;;;;;;;0.80;0.80;;;;;;;39.02;29.24;99277.63;4962664;28;20049;-83
2021/07/16 07:23:39;;;;;;;0.60;0.60;;;;;;;39.25;28.32;99277.22;4961213;28;20058;-83
2021/07/16 07:26:05;;;;;;;0.70;0.70;;;;;;;39.85;27.73;99275.56;4989224;28;20114;-83
2021/07/16 07:28:32;;;;;;;0.20;0.10;;;;;;;39.72;27.75;99279.59;4992076;28;20026;-82
2021/07/16 07:30:59;;;;;;;0.60;0.60;;;;;;;38.38;29.13;99278.06;5011598;28;20038;-83
2021/07/16 07:33:25;;;;;;;0.80;0.80;;;;;;;39.50;28.23;99278.88;4996262;28;20046;-81
2021/07/16 07:35:51;;;;;;;0.43;0.43;;;;;;;39.52;28.06;99282.16;4979339;28;20042;-85
2021/07/16 07:38:19;;;;;;;0.80;0.80;;;;;;;39.39;28.18;99277.69;4979136;28;20039;-84
2021/07/16 07:40:45;;;;;;;0.70;0.70;;;;;;;40.10;26.90;99278.34;4980475;28;20039;-79
2021/07/16 07:43:11;;;;;;;0.82;0.82;;;;;;;40.93;26.67;99283.25;4955660;28;20049;-81
2021/07/16 07:45:38;;;;;;;0.70;0.70;;;;;;;41.08;26.28;99275.97;4958108;28;20141;-80
2021/07/16 07:48:05;;;;;;;0.80;0.80;;;;;;;41.48;25.46;99286.34;4956708;28;20058;-81
2021/07/16 07:50:32;;;;;;;0.80;0.80;;;;;;;41.70;24.63;99287.72;4953774;28;20039;-84
2021/07/16 07:52:59;;;;;;;0.80;0.80;;;;;;;41.40;25.13;99290.19;4938046;28;20440;-81
2021/07/16 07:55:25;;;;;;;0.22;0.22;;;;;;;40.82;25.55;99279.31;4971136;28;20039;-82
2021/07/16 07:57:54;;;;;;;0.90;0.90;;;;;;;40.96;25.17;99287.38;4936903;28;20035;-80
2021/07/16 08:00:23;;;;;;;0.90;0.90;;;;;;;41.33;24.51;99285.16;4939354;28;20053;-81
2021/07/16 08:02:49;;;;;;;2.10;1.70;;;;;;;41.58;24.02;99282.16;4954256;28;20079;-81
2021/07/16 08:05:15;;;;;;;1.00;1.00;;;;;;;41.42;24.65;99280.13;4957885;28;20075;-82
2021/07/16 08:07:42;;;;;;;0.90;0.90;;;;;;;41.77;23.35;99282.19;4944591;28;20023;-83
2021/07/16 08:10:12;;;;;;;0.88;0.88;;;;;;;42.11;23.26;99285.44;4936625;28;20039;-84
2021/07/16 08:12:39;;;;;;;0.30;0.30;;;;;;;41.63;23.86;99287.53;4947427;28;20268;-83
2021/07/16 08:15:08;;;;;;;0.90;0.90;;;;;;;42.04;23.07;99285.28;4966675;28;20110;-83
2021/07/16 08:17:35;;;;;;;0.90;0.90;;;;;;;42.47;21.87;99281.38;4945425;28;20038;-83
2021/07/16 08:20:04;;;;;;;0.90;0.90;;;;;;;43.14;21.85;99275.41;4932537;29;20043;-84
2021/07/16 08:22:31;;;;;;;0.80;0.80;;;;;;;43.59;21.35;99273.75;4935756;28;20035;-81
2021/07/16 08:24:57;;;;;;;1.10;1.10;;;;;;;43.17;21.51;99274.63;4958812;28;20109;-83
2021/07/16 08:27:24;;;;;;;0.70;0.70;;;;;;;43.15;21.58;99270.53;4959397;28;20046;-82
2021/07/16 08:29:51;;;;;;;2.00;1.80;;;;;;;43.53;21.71;99275.28;4942576;28;20034;-84
2021/07/16 08:32:17;;;;;;;0.20;0.20;;;;;;;42.74;22.70;99268.13;4966655;28;20079;-83
2021/07/16 08:34:44;;;;;;;1.10;1.10;;;;;;;42.86;22.65;99270.81;4948889;28;20039;-80
2021/07/16 08:37:10;;;;;;;1.00;1.00;;;;;;;43.01;22.06;99271.06;4963433;28;20055;-82
2021/07/16 08:39:38;;;;;;;0.90;0.90;;;;;;;43.53;21.54;99266.75;4928932;28;20039;-82
2021/07/16 08:42:05;;;;;;;0.20;0.10;;;;;;;43.05;22.65;99267.09;4980791;28;20042;-81
2021/07/16 08:44:33;;;;;;;0.10;0.10;;;;;;;41.51;24.39;99270.63;4996855;28;20043;-85
2021/07/16 08:47:02;;;;;;;0.47;0.47;;;;;;;41.53;23.65;99276.72;5010026;28;20073;-81
2021/07/16 08:49:28;;;;;;;0.10;0.10;;;;;;;40.42;25.29;99265.19;4968222;28;20087;-82
2021/07/16 08:51:55;;;;;;;0.60;0.60;;;;;;;39.55;26.49;99272.97;4967808;28;20108;-80
2021/07/16 08:54:21;;;;;;;0.90;0.90;;;;;;;41.26;24.90;99267.13;4978436;28;20085;-83
2021/07/16 08:56:48;;;;;;;1.02;1.02;;;;;;;42.21;22.92;99278.34;4957580;28;20038;-83
2021/07/16 08:59:27;;;;;;;0.90;0.90;;;;;;;42.88;23.04;99276.09;4969309;28;20152;-82
2021/07/16 09:01:54;;;;;;;1.00;1.00;;;;;;;43.53;22.39;99272.44;4977925;28;20054;-82
2021/07/16 09:04:24;;;;;;;0.82;0.82;;;;;;;43.86;20.96;99273.75;4969660;28;20086;-82
2021/07/16 09:06:55;;;;;;;0.88;0.88;;;;;;;44.67;20.10;99276.94;4996996;28;20443;-83
2021/07/16 09:09:27;;;;;;;0.90;0.90;;;;;;;44.60;19.04;99276.81;4993228;28;20038;-81
2021/07/16 09:11:56;;;;;;;1.00;1.00;;;;;;;44.89;19.31;99277.16;4982680;28;20200;-83
2021/07/16 09:14:28;;;;;;;0.80;0.80;;;;;;;44.97;19.62;99273.16;4951052;28;20085;-81
2021/07/16 09:17:03;;;;;;;0.70;0.70;;;;;;;43.97;21.06;99263.34;4982700;28;20237;-83
2021/07/16 09:19:35;;;;;;;1.10;1.10;;;;;;;44.21;20.53;99270.59;4948792;28;20058;-82
2021/07/16 09:22:23;;;;;;;0.95;0.95;;;;;;;44.73;20.10;99268.88;4960575;28;20056;-81
2021/07/16 09:24:59;;;;;;;0.90;0.90;;;;;;;44.96;20.38;99262.97;4987274;28;20045;-85
2021/07/16 09:27:33;;;;;;;0.70;0.70;;;;;;;45.06;19.93;99270.88;4998674;28;20077;-83
2021/07/16 09:30:19;;;;;;;0.90;0.90;;;;;;;45.35;19.22;99265.41;5004413;28;20042;-83
2021/07/16 09:32:51;;;;;;;1.30;1.20;;;;;;;45.33;19.37;99267.84;4996493;28;20748;-83
2021/07/16 09:35:19;;;;;;;0.30;0.30;;;;;;;44.68;19.58;99261.44;4964232;28;20047;-84
2021/07/16 09:38:02;;;;;;;0.70;0.70;;;;;;;45.16;18.99;99264.44;4968239;28;20045;-84
2021/07/16 09:40:36;;;;;;;0.70;0.70;;;;;;;45.30;19.60;99257.19;4982853;28;20430;-83
2021/07/16 09:43:12;;;;;;;0.80;0.80;;;;;;;45.02;20.25;99252.84;4964985;28;20054;-83
2021/07/16 09:45:41;;;;;;;0.20;0.20;;;;;;;44.80;20.65;99248.13;4966354;28;20042;-82
2021/07/16 09:48:27;;;;;;;0.70;0.70;;;;;;;45.34;19.81;99258.03;4995687;28;20502;-84
2021/07/16 09:51:18;;;;;;;0.60;0.60;;;;;;;44.91;18.73;99244.19;4997631;28;20038;-83
2021/07/16 09:53:49;;;;;;;;;;;;;;;44.70;19.78;99263.94;4962736;28;20161;-81
2021/07/16 09:56:22;;;;;;;0.70;0.70;;;;;;;45.21;19.02;99255.50;4988509;28;20008;-82
2021/07/16 09:58:56;;;;;;;0.70;0.70;;;;;;;45.64;18.71;99253.03;4992296;28;20062;-81
2021/07/16 10:01:22;;;;;;;0.70;0.70;;;;;;;45.84;18.66;99258.47;4992629;28;20038;-80
2021/07/16 10:03:50;;;;;;;0.90;0.90;;;;;;;45.48;18.58;99235.34;4957401;28;20042;-82
2021/07/16 10:06:16;;;;;;;0.70;0.70;;;;;;;45.60;18.49;99239.91;4995007;28;20043;-83
2021/07/16 10:08:42;;;;;;;0.70;0.70;;;;;;;45.94;17.59;99240.56;5010880;28;20057;-83
2021/07/16 10:11:10;;;;;;;0.70;0.70;;;;;;;45.60;18.66;99232.19;4999738;28;20046;-84
2021/07/16 10:13:37;;;;;;;0.82;0.82;;;;;;;45.07;18.66;99226.81;4974918;28;20046;-82
2021/07/16 10:16:04;;;;;;;0.80;0.80;;;;;;;45.35;18.26;99231.16;4982582;28;20046;-82
2021/07/16 10:18:31;;;;;;;0.80;0.80;;;;;;;45.19;18.30;99226.50;4998921;28;20136;-82
2021/07/16 10:20:58;;;;;;;0.70;0.70;;;;;;;45.44;17.94;99223.03;4985809;28;20090;-83
2021/07/16 10:23:25;;;;;;;0.60;0.60;;;;;;;44.96;18.44;99215.28;5006637;28;20034;-85
2021/07/16 10:25:52;;;;;;;3.13;2.92;;;;;;;45.49;18.33;99219.03;4967411;28;20073;-82
2021/07/16 10:28:28;;;;;;;0.70;0.70;;;;;;;45.93;17.49;99227.50;5004222;28;20030;-83
2021/07/16 10:30:54;;;;;;;0.70;0.70;;;;;;;45.67;17.98;99220.81;4991407;28;20039;-82
2021/07/16 10:33:39;;;;;;;0.70;0.70;;;;;;;45.59;17.53;99218.28;4998215;28;20050;-81
2021/07/16 10:36:14;;;;;;;0.70;0.70;;;;;;;45.67;17.59;99209.38;4996723;28;20133;-83
2021/07/16 10:38:40;;;;;;;0.50;0.50;;;;;;;45.03;19.00;99203.13;4969484;28;20042;-81
2021/07/16 10:41:31;;;;;;;0.10;0.10;;;;;;;42.89;20.89;99197.28;4995112;28;20053;-84
2021/07/16 10:43:59;;;;;;;0.10;0.10;;;;;;;41.71;21.87;99204.16;5003832;28;20066;-84
2021/07/16 10:46:31;;;;;;;0.10;0.10;;;;;;;41.32;22.28;99197.53;4988016;28;20072;-83
2021/07/16 10:48:58;;;;;;;0.80;0.80;;;;;;;41.73;22.44;99198.94;5006754;28;20208;-83
2021/07/16 10:51:27;;;;;;;0.60;0.60;;;;;;;42.98;21.26;99186.47;4988458;28;20042;-82
2021/07/16 10:53:55;;;;;;;0.10;0.10;;;;;;;42.89;20.62;99188.75;4988494;28;20057;-81
2021/07/16 10:56:39;;;;;;;0.20;0.10;;;;;;;42.73;20.31;99192.53;4992978;28;20042;-83
2021/07/16 10:59:07;;;;;;;0.08;0.08;;;;;;;41.10;22.46;99190.50;4992001;28;20061;-82
2021/07/16 11:01:37;;;;;;;0.10;0.10;;;;;;;39.98;23.59;99178.09;4985582;28;20506;-80
2021/07/16 11:04:07;;;;;;;0.10;0.10;;;;;;;39.32;24.26;99164.31;4995473;28;20042;-82
2021/07/16 11:07:00;;;;;;;0.10;0.10;;;;;;;38.65;24.20;99179.75;4971035;28;20066;-82
2021/07/16 11:09:33;;;;;;;0.20;0.20;;;;;;;38.58;24.46;99175.50;4984401;28;20718;-82
2021/07/16 11:12:18;;;;;;;0.70;0.70;;;;;;;40.32;22.75;99175.84;4959512;28;20065;-81
2021/07/16 11:14:45;;;;;;;0.60;0.60;;;;;;;41.34;21.41;99167.59;4994495;28;20091;-83
2021/07/16 11:17:26;;;;;;;0.80;0.80;;;;;;;42.47;20.52;99167.66;4993714;28;20046;-79
2021/07/16 11:20:21;;;;;;;0.70;0.70;;;;;;;42.60;20.73;99165.44;4982316;28;20069;-81
2021/07/16 11:22:58;;;;;;;0.60;0.60;;;;;;;42.64;20.62;99149.31;4982717;28;20077;-83
2021/07/16 11:25:26;;;;;;;0.80;0.80;;;;;;;42.53;20.35;99156.78;4984229;28;20138;-81
2021/07/16 11:27:53;;;;;;;0.10;0.10;;;;;;;41.51;21.78;99154.25;4998914;28;20035;-81
2021/07/16 11:30:19;;;;;;;0.10;0.10;;;;;;;40.33;22.90;99163.31;4979216;28;20053;-82
2021/07/16 11:32:46;;;;;;;0.10;0.10;;;;;;;39.80;23.46;99151.25;4995838;28;20049;-82
2021/07/16 11:35:13;;;;;;;0.20;0.17;;;;;;;39.31;24.67;99154.19;5008595;28;20100;-84
2021/07/16 11:37:47;;;;;;;0.43;0.43;;;;;;;38.85;24.67;99149.78;5002847;28;20093;-82
2021/07/16 11:40:21;;;;;;;0.75;0.75;;;;;;;39.97;22.75;99150.16;4994741;28;20073;-81